Wetterdaten: Woche 13.07.15 - 19.07.15 (KW29)
Datum Zeit Temperatur Luftfeuchte Luftdruck Niederschlag Windrichtung Sonnenschein Solar Wind
13.07.2015 00:00 17,7 C 73 % 1016,4 hPa 0,0 l/m N 0,00 h 0 W/m 0,0 km/h (0 Bft)
13.07.2015 01:00 17,3 C 75 % 1016,1 hPa 0,0 l/m N 0,00 h 0 W/m 0,5 km/h (0 Bft)
13.07.2015 02:00 16,8 C 78 % 1015,9 hPa 0,0 l/m N-NO 0,00 h 0 W/m 1,7 km/h (1 Bft)
13.07.2015 03:00 16,5 C 80 % 1015,7 hPa 0,0 l/m N 0,00 h 0 W/m 0,4 km/h (0 Bft)
13.07.2015 04:00 16,2 C 85 % 1015,6 hPa 0,0 l/m N 0,00 h 0 W/m 0,8 km/h (0 Bft)
13.07.2015 05:00 16,1 C 82 % 1016,1 hPa 0,0 l/m W-NW 0,00 h 0 W/m 5,0 km/h (1 Bft)
13.07.2015 06:00 15,6 C 84 % 1016,1 hPa 0,0 l/m W-NW 0,00 h 15 W/m 1,5 km/h (1 Bft)
13.07.2015 07:00 15,6 C 88 % 1016,0 hPa 0,0 l/m N 0,00 h 39 W/m 1,5 km/h (1 Bft)
13.07.2015 08:00 16,7 C 85 % 1016,2 hPa 0,0 l/m SW 0,00 h 155 W/m 4,2 km/h (1 Bft)
13.07.2015 09:00 18,2 C 75 % 1016,2 hPa 0,0 l/m W-SW 0,08 h 196 W/m 10,2 km/h (2 Bft)
13.07.2015 10:00 19,1 C 71 % 1016,0 hPa 0,0 l/m W-SW 0,00 h 215 W/m 10,3 km/h (2 Bft)
13.07.2015 11:00 20,2 C 65 % 1015,9 hPa 0,0 l/m W 0,00 h 326 W/m 13,4 km/h (3 Bft)
13.07.2015 12:00 20,6 C 64 % 1015,9 hPa 0,0 l/m W-SW 0,00 h 184 W/m 13,2 km/h (3 Bft)
13.07.2015 13:00 21,2 C 63 % 1015,6 hPa 0,0 l/m W-SW 0,00 h 275 W/m 16,5 km/h (3 Bft)
13.07.2015 14:00 21,1 C 63 % 1015,7 hPa 0,0 l/m W 0,00 h 212 W/m 17,2 km/h (3 Bft)
13.07.2015 15:00 20,9 C 65 % 1015,8 hPa 0,0 l/m W 0,00 h 127 W/m 10,3 km/h (2 Bft)
13.07.2015 16:00 20,9 C 65 % 1015,8 hPa 0,0 l/m NW 0,00 h 151 W/m 3,1 km/h (1 Bft)
13.07.2015 17:00 21,3 C 65 % 1015,5 hPa 0,0 l/m NW 0,00 h 156 W/m 2,4 km/h (1 Bft)
13.07.2015 18:00 21,9 C 61 % 1015,3 hPa 0,0 l/m N-NW 0,00 h 142 W/m 8,4 km/h (2 Bft)
13.07.2015 19:00 21,0 C 63 % 1015,5 hPa 0,0 l/m N-NW 0,00 h 34 W/m 5,0 km/h (1 Bft)
13.07.2015 20:00 20,3 C 69 % 1015,8 hPa 0,0 l/m N 0,00 h 21 W/m 0,0 km/h (0 Bft)
13.07.2015 21:00 19,1 C 78 % 1016,0 hPa 0,0 l/m N 0,00 h 0 W/m 0,0 km/h (0 Bft)
13.07.2015 22:00 18,4 C 79 % 1016,4 hPa 0,0 l/m N 0,00 h 0 W/m 0,0 km/h (0 Bft)
13.07.2015 23:00 18,0 C 80 % 1016,4 hPa 0,0 l/m N 0,00 h 0 W/m 0,0 km/h (0 Bft)
14.07.2015 00:00 17,9 C 82 % 1016,5 hPa 0,0 l/m N 0,00 h 0 W/m 0,0 km/h (0 Bft)
14.07.2015 01:00 18,0 C 81 % 1016,3 hPa 0,0 l/m N-NW 0,00 h 0 W/m 3,9 km/h (1 Bft)
14.07.2015 02:00 18,8 C 74 % 1016,1 hPa 0,0 l/m W-NW 0,00 h 0 W/m 6,4 km/h (2 Bft)
14.07.2015 03:00 18,8 C 73 % 1016,1 hPa 0,0 l/m W-NW 0,00 h 0 W/m 5,1 km/h (1 Bft)
14.07.2015 04:00 18,6 C 74 % 1016,0 hPa 0,0 l/m N 0,00 h 0 W/m 3,6 km/h (1 Bft)
14.07.2015 05:00 18,1 C 76 % 1016,0 hPa 0,0 l/m N 0,00 h 5 W/m 2,8 km/h (1 Bft)
14.07.2015 06:00 17,7 C 81 % 1015,9 hPa 0,0 l/m W-NW 0,00 h 25 W/m 2,9 km/h (1 Bft)
14.07.2015 07:00 18,8 C 76 % 1015,9 hPa 0,0 l/m W 0,00 h 98 W/m 7,2 km/h (2 Bft)
14.07.2015 08:00 19,8 C 73 % 1016,0 hPa 0,0 l/m W 0,00 h 120 W/m 8,6 km/h (2 Bft)
14.07.2015 09:00 20,9 C 70 % 1016,1 hPa 0,0 l/m W 0,17 h 266 W/m 9,3 km/h (2 Bft)
14.07.2015 10:00 22,5 C 64 % 1015,7 hPa 0,0 l/m W-SW 0,75 h 561 W/m 17,7 km/h (3 Bft)
14.07.2015 11:00 23,5 C 60 % 1015,5 hPa 0,0 l/m W-SW 0,42 h 472 W/m 22,1 km/h (4 Bft)
14.07.2015 12:00 23,9 C 60 % 1015,3 hPa 0,0 l/m W-NW 0,17 h 381 W/m 18,2 km/h (3 Bft)
14.07.2015 13:00 24,7 C 58 % 1015,1 hPa 0,0 l/m SW 0,50 h 494 W/m 18,6 km/h (3 Bft)
14.07.2015 14:00 25,2 C 56 % 1014,9 hPa 0,0 l/m SW 0,33 h 560 W/m 16,8 km/h (3 Bft)
14.07.2015 15:00 25,9 C 54 % 1014,5 hPa 0,0 l/m W 0,17 h 376 W/m 13,4 km/h (3 Bft)
14.07.2015 16:00 26,4 C 53 % 1014,3 hPa 0,0 l/m W-SW 0,25 h 364 W/m 11,4 km/h (2 Bft)
14.07.2015 17:00 26,6 C 50 % 1014,3 hPa 0,0 l/m N-NO 0,33 h 291 W/m 11,3 km/h (2 Bft)
14.07.2015 18:00 26,2 C 51 % 1014,3 hPa 0,0 l/m N-NW 0,17 h 179 W/m 9,0 km/h (2 Bft)
14.07.2015 19:00 25,9 C 53 % 1014,5 hPa 0,0 l/m N-NW 0,75 h 196 W/m 10,2 km/h (2 Bft)
14.07.2015 20:00 24,2 C 56 % 1014,9 hPa 0,0 l/m N 0,08 h 36 W/m 11,4 km/h (2 Bft)
14.07.2015 21:00 21,7 C 63 % 1015,4 hPa 0,0 l/m N 0,08 h 8 W/m 3,9 km/h (1 Bft)
14.07.2015 22:00 19,6 C 71 % 1016,3 hPa 0,0 l/m N 0,00 h 0 W/m 0,4 km/h (0 Bft)
14.07.2015 23:00 17,6 C 80 % 1016,8 hPa 0,0 l/m N 0,00 h 0 W/m 1,2 km/h (1 Bft)
15.07.2015 00:00 16,7 C 82 % 1017,1 hPa 0,0 l/m N 0,00 h 0 W/m 0,0 km/h (0 Bft)
15.07.2015 01:00 15,7 C 86 % 1017,3 hPa 0,0 l/m N 0,00 h 0 W/m 0,0 km/h (0 Bft)
15.07.2015 02:00 15,1 C 90 % 1017,1 hPa 0,0 l/m N 0,00 h 0 W/m 0,0 km/h (0 Bft)
15.07.2015 03:00 14,7 C 91 % 1017,2 hPa 0,0 l/m N 0,00 h 0 W/m 0,0 km/h (0 Bft)
15.07.2015 04:00 14,6 C 92 % 1017,3 hPa 0,0 l/m N 0,00 h 0 W/m 0,0 km/h (0 Bft)
15.07.2015 05:00 14,2 C 94 % 1017,5 hPa 0,0 l/m N 0,00 h 7 W/m 0,0 km/h (0 Bft)
15.07.2015 06:00 14,1 C 95 % 1017,7 hPa 0,0 l/m N 0,00 h 28 W/m 0,0 km/h (0 Bft)
15.07.2015 07:00 15,7 C 90 % 1017,8 hPa 0,0 l/m N 0,50 h 130 W/m 0,8 km/h (0 Bft)
15.07.2015 08:00 19,1 C 77 % 1017,8 hPa 0,0 l/m N 1,00 h 315 W/m 3,5 km/h (1 Bft)
15.07.2015 09:00 21,3 C 68 % 1017,8 hPa 0,0 l/m O-NO 1,00 h 482 W/m 7,1 km/h (2 Bft)
15.07.2015 10:00 22,8 C 64 % 1017,5 hPa 0,0 l/m O 0,92 h 610 W/m 8,5 km/h (2 Bft)
15.07.2015 11:00 23,6 C 61 % 1017,3 hPa 0,0 l/m O-NO 0,75 h 598 W/m 7,8 km/h (2 Bft)
15.07.2015 12:00 24,0 C 58 % 1016,9 hPa 0,0 l/m N-NO 0,83 h 753 W/m 6,7 km/h (2 Bft)
15.07.2015 13:00 26,2 C 51 % 1016,3 hPa 0,0 l/m O-SO 1,00 h 872 W/m 10,6 km/h (2 Bft)
15.07.2015 14:00 27,2 C 48 % 1015,8 hPa 0,0 l/m O-SO 1,00 h 859 W/m 10,3 km/h (2 Bft)
15.07.2015 15:00 27,9 C 46 % 1015,4 hPa 0,0 l/m NO 1,00 h 800 W/m 9,3 km/h (2 Bft)
15.07.2015 16:00 28,7 C 44 % 1015,1 hPa 0,0 l/m O 1,00 h 704 W/m 10,6 km/h (2 Bft)
15.07.2015 17:00 29,0 C 44 % 1014,7 hPa 0,0 l/m O-SO 1,00 h 545 W/m 10,2 km/h (2 Bft)
15.07.2015 18:00 28,7 C 44 % 1014,5 hPa 0,0 l/m O 1,00 h 388 W/m 8,6 km/h (2 Bft)
15.07.2015 19:00 27,7 C 47 % 1014,4 hPa 0,0 l/m O 1,00 h 209 W/m 8,2 km/h (2 Bft)
15.07.2015 20:00 26,0 C 54 % 1014,3 hPa 0,0 l/m O 0,08 h 29 W/m 5,1 km/h (1 Bft)
15.07.2015 21:00 22,1 C 71 % 1014,7 hPa 0,0 l/m N 0,08 h 7 W/m 0,3 km/h (0 Bft)
15.07.2015 22:00 20,2 C 78 % 1015,2 hPa 0,0 l/m N 0,00 h 0 W/m 0,5 km/h (0 Bft)
15.07.2015 23:00 19,3 C 82 % 1015,3 hPa 0,0 l/m N 0,00 h 0 W/m 0,9 km/h (0 Bft)
16.07.2015 00:00 18,5 C 84 % 1015,3 hPa 0,0 l/m N 0,00 h 0 W/m 0,9 km/h (0 Bft)
16.07.2015 01:00 18,0 C 86 % 1015,3 hPa 0,0 l/m N 0,00 h 0 W/m 0,7 km/h (0 Bft)
16.07.2015 02:00 17,4 C 87 % 1015,2 hPa 0,0 l/m O 0,00 h 0 W/m 5,5 km/h (1 Bft)
16.07.2015 03:00 17,3 C 87 % 1015,1 hPa 0,0 l/m O 0,00 h 0 W/m 1,9 km/h (1 Bft)
16.07.2015 04:00 16,3 C 91 % 1014,9 hPa 0,0 l/m O 0,00 h 0 W/m 0,4 km/h (0 Bft)
16.07.2015 05:00 15,5 C 93 % 1014,9 hPa 0,0 l/m N 0,08 h 8 W/m 0,1 km/h (0 Bft)
16.07.2015 06:00 16,0 C 93 % 1015,1 hPa 0,0 l/m N 0,00 h 38 W/m 0,8 km/h (0 Bft)
16.07.2015 07:00 18,2 C 86 % 1015,3 hPa 0,0 l/m O 0,58 h 159 W/m 2,0 km/h (1 Bft)
16.07.2015 08:00 20,5 C 79 % 1015,4 hPa 0,0 l/m O 1,00 h 319 W/m 5,5 km/h (1 Bft)
16.07.2015 09:00 22,6 C 72 % 1015,4 hPa 0,0 l/m O 1,00 h 481 W/m 5,5 km/h (1 Bft)
16.07.2015 10:00 25,3 C 63 % 1015,3 hPa 0,0 l/m O 1,00 h 629 W/m 5,2 km/h (1 Bft)
16.07.2015 11:00 27,3 C 53 % 1015,1 hPa 0,0 l/m O 1,00 h 751 W/m 8,6 km/h (2 Bft)
16.07.2015 12:00 28,8 C 46 % 1014,9 hPa 0,0 l/m O 1,00 h 829 W/m 7,9 km/h (2 Bft)
16.07.2015 13:00 29,8 C 42 % 1014,4 hPa 0,0 l/m O 1,00 h 870 W/m 10,1 km/h (2 Bft)
16.07.2015 14:00 31,1 C 38 % 1013,7 hPa 0,0 l/m O-SO 1,00 h 852 W/m 11,4 km/h (2 Bft)
16.07.2015 15:00 31,7 C 36 % 1013,2 hPa 0,0 l/m S-SW 1,00 h 786 W/m 12,8 km/h (3 Bft)
16.07.2015 16:00 32,3 C 35 % 1012,8 hPa 0,0 l/m SW 1,00 h 674 W/m 12,2 km/h (2 Bft)
16.07.2015 17:00 32,4 C 32 % 1012,4 hPa 0,0 l/m SW 1,00 h 546 W/m 16,8 km/h (3 Bft)
16.07.2015 18:00 31,5 C 34 % 1012,1 hPa 0,0 l/m W-SW 1,00 h 386 W/m 14,5 km/h (3 Bft)
16.07.2015 19:00 30,0 C 40 % 1011,9 hPa 0,0 l/m W-SW 1,00 h 207 W/m 9,1 km/h (2 Bft)
16.07.2015 20:00 27,2 C 49 % 1012,0 hPa 0,0 l/m W-SW 0,08 h 28 W/m 3,7 km/h (1 Bft)
16.07.2015 21:00 25,1 C 54 % 1012,3 hPa 0,0 l/m W-SW 0,00 h 7 W/m 2,5 km/h (1 Bft)
16.07.2015 22:00 23,5 C 63 % 1012,8 hPa 0,0 l/m N 0,00 h 0 W/m 0,0 km/h (0 Bft)
16.07.2015 23:00 21,1 C 72 % 1012,9 hPa 0,0 l/m N 0,00 h 0 W/m 0,7 km/h (0 Bft)
17.07.2015 00:00 20,0 C 75 % 1013,2 hPa 0,0 l/m N 0,00 h 0 W/m 0,7 km/h (0 Bft)
17.07.2015 01:00 18,7 C 80 % 1013,3 hPa 0,0 l/m N 0,00 h 0 W/m 0,3 km/h (0 Bft)
17.07.2015 02:00 17,7 C 85 % 1013,5 hPa 0,0 l/m N 0,00 h 0 W/m 0,0 km/h (0 Bft)
17.07.2015 03:00 16,8 C 89 % 1013,3 hPa 0,0 l/m N 0,00 h 0 W/m 0,0 km/h (0 Bft)
17.07.2015 04:00 15,9 C 92 % 1013,3 hPa 0,0 l/m N 0,00 h 0 W/m 0,0 km/h (0 Bft)
17.07.2015 05:00 15,6 C 93 % 1013,4 hPa 0,0 l/m N 0,00 h 7 W/m 0,0 km/h (0 Bft)
17.07.2015 06:00 15,6 C 93 % 1013,7 hPa 0,0 l/m N 0,00 h 35 W/m 0,0 km/h (0 Bft)
17.07.2015 07:00 17,4 C 88 % 1013,9 hPa 0,0 l/m W 0,42 h 148 W/m 0,9 km/h (0 Bft)
17.07.2015 08:00 20,2 C 81 % 1014,1 hPa 0,0 l/m N 1,00 h 308 W/m 1,3 km/h (1 Bft)
17.07.2015 09:00 24,4 C 69 % 1014,1 hPa 0,0 l/m SW 1,00 h 461 W/m 8,4 km/h (2 Bft)
17.07.2015 10:00 26,9 C 62 % 1014,0 hPa 0,0 l/m S-SW 0,92 h 584 W/m 11,6 km/h (2 Bft)
17.07.2015 11:00 28,3 C 57 % 1014,0 hPa 0,0 l/m S-SW 1,00 h 721 W/m 14,4 km/h (3 Bft)
17.07.2015 12:00 30,1 C 48 % 1014,1 hPa 0,0 l/m SW 1,00 h 810 W/m 15,0 km/h (3 Bft)
17.07.2015 13:00 31,8 C 40 % 1013,6 hPa 0,0 l/m W-SW 1,00 h 838 W/m 14,9 km/h (3 Bft)
17.07.2015 14:00 32,8 C 38 % 1012,9 hPa 0,0 l/m W-SW 1,00 h 817 W/m 14,6 km/h (3 Bft)
17.07.2015 15:00 32,5 C 39 % 1012,5 hPa 0,0 l/m N-NO 0,42 h 382 W/m 12,8 km/h (3 Bft)
17.07.2015 16:00 24,5 C 65 % 1013,3 hPa 8,8 l/m O 0,00 h 162 W/m 23,2 km/h (4 Bft)
17.07.2015 17:00 21,5 C 87 % 1013,0 hPa 0,0 l/m NW 0,00 h 84 W/m 4,2 km/h (1 Bft)
17.07.2015 18:00 22,4 C 73 % 1013,6 hPa 2,4 l/m SW 0,00 h 26 W/m 16,0 km/h (3 Bft)
17.07.2015 19:00 19,2 C 85 % 1015,4 hPa 7,0 l/m SW 0,00 h 0 W/m 20,2 km/h (4 Bft)
17.07.2015 20:00 18,1 C 90 % 1014,4 hPa 0,0 l/m SW 0,00 h 7 W/m 14,7 km/h (3 Bft)
17.07.2015 21:00 19,0 C 83 % 1014,7 hPa 0,0 l/m SW 0,00 h 11 W/m 13,7 km/h (3 Bft)
17.07.2015 22:00 18,5 C 83 % 1014,7 hPa 0,0 l/m S-SW 0,00 h 0 W/m 5,5 km/h (1 Bft)
17.07.2015 23:00 17,3 C 90 % 1014,5 hPa 0,0 l/m SW 0,00 h 0 W/m 2,4 km/h (1 Bft)
18.07.2015 00:00 17,6 C 86 % 1014,4 hPa 0,0 l/m S-SW 0,00 h 0 W/m 2,0 km/h (1 Bft)
18.07.2015 01:00 16,9 C 89 % 1014,3 hPa 0,2 l/m S-SW 0,00 h 0 W/m 1,2 km/h (1 Bft)
18.07.2015 02:00 16,4 C 91 % 1014,3 hPa 0,0 l/m N 0,00 h 0 W/m 0,0 km/h (0 Bft)
18.07.2015 03:00 16,0 C 93 % 1014,6 hPa 0,0 l/m SW 0,00 h 0 W/m 1,9 km/h (1 Bft)
18.07.2015 04:00 16,1 C 92 % 1014,9 hPa 0,0 l/m SW 0,00 h 0 W/m 2,4 km/h (1 Bft)
18.07.2015 05:00 16,1 C 94 % 1014,8 hPa 0,0 l/m SW 0,00 h 0 W/m 0,4 km/h (0 Bft)
18.07.2015 06:00 16,3 C 94 % 1015,0 hPa 0,0 l/m SW 0,00 h 13 W/m 1,7 km/h (1 Bft)
18.07.2015 07:00 17,2 C 93 % 1015,3 hPa 0,0 l/m N 0,08 h 115 W/m 0,0 km/h (0 Bft)
18.07.2015 08:00 20,0 C 87 % 1015,5 hPa 0,0 l/m SW 0,67 h 261 W/m 3,8 km/h (1 Bft)
18.07.2015 09:00 22,9 C 72 % 1015,8 hPa 0,0 l/m W 0,83 h 413 W/m 7,5 km/h (2 Bft)
18.07.2015 10:00 23,7 C 69 % 1016,3 hPa 0,0 l/m W-NW 0,17 h 195 W/m 6,7 km/h (2 Bft)
18.07.2015 11:00 22,5 C 77 % 1017,4 hPa 0,0 l/m SW 0,00 h 79 W/m 12,9 km/h (3 Bft)
18.07.2015 12:00 20,9 C 87 % 1017,3 hPa 0,0 l/m S-SW 0,00 h 207 W/m 12,5 km/h (3 Bft)
18.07.2015 13:00 22,4 C 83 % 1017,1 hPa 0,0 l/m W-SW 0,00 h 298 W/m 12,2 km/h (2 Bft)
18.07.2015 14:00 23,1 C 81 % 1016,8 hPa 0,2 l/m W-SW 0,00 h 221 W/m 7,8 km/h (2 Bft)
18.07.2015 15:00 23,8 C 80 % 1015,5 hPa 0,2 l/m O-SO 0,17 h 347 W/m 8,1 km/h (2 Bft)
18.07.2015 16:00 24,4 C 77 % 1015,4 hPa 0,0 l/m S 0,50 h 496 W/m 9,4 km/h (2 Bft)
18.07.2015 17:00 25,8 C 65 % 1014,8 hPa 0,0 l/m O-SO 1,00 h 553 W/m 6,3 km/h (2 Bft)
18.07.2015 18:00 26,0 C 60 % 1014,3 hPa 0,0 l/m O-SO 1,00 h 377 W/m 5,9 km/h (2 Bft)
18.07.2015 19:00 25,3 C 62 % 1013,9 hPa 0,0 l/m O-SO 1,00 h 198 W/m 2,8 km/h (1 Bft)
18.07.2015 20:00 23,2 C 74 % 1013,5 hPa 0,0 l/m O-SO 0,00 h 30 W/m 1,7 km/h (1 Bft)
18.07.2015 21:00 20,5 C 84 % 1013,7 hPa 0,0 l/m N 0,00 h 6 W/m 0,8 km/h (0 Bft)
18.07.2015 22:00 19,3 C 89 % 1013,7 hPa 0,0 l/m N 0,00 h 0 W/m 0,5 km/h (0 Bft)
18.07.2015 23:00 18,6 C 92 % 1013,6 hPa 0,0 l/m N 0,00 h 0 W/m 0,0 km/h (0 Bft)
19.07.2015 00:00 17,9 C 94 % 1013,3 hPa 0,0 l/m N 0,00 h 0 W/m 0,5 km/h (0 Bft)
19.07.2015 01:00 18,4 C 95 % 1012,6 hPa 0,0 l/m O-SO 0,00 h 0 W/m 1,9 km/h (1 Bft)
19.07.2015 02:00 18,2 C 94 % 1011,3 hPa 0,0 l/m SO 0,00 h 0 W/m 3,3 km/h (1 Bft)
19.07.2015 03:00 17,7 C 96 % 1010,8 hPa 0,0 l/m N 0,00 h 0 W/m 0,3 km/h (0 Bft)
19.07.2015 04:00 16,8 C 97 % 1010,5 hPa 0,0 l/m N 0,00 h 0 W/m 0,0 km/h (0 Bft)
19.07.2015 05:00 16,2 C 98 % 1010,2 hPa 0,0 l/m N 0,00 h 7 W/m 0,0 km/h (0 Bft)
19.07.2015 06:00 16,1 C 98 % 1009,8 hPa 0,0 l/m N 0,00 h 32 W/m 0,0 km/h (0 Bft)
19.07.2015 07:00 17,6 C 97 % 1009,9 hPa 0,0 l/m S-SO 0,17 h 130 W/m 2,8 km/h (1 Bft)
19.07.2015 08:00 20,0 C 87 % 1010,7 hPa 0,0 l/m W-SW 0,17 h 132 W/m 12,2 km/h (2 Bft)
19.07.2015 09:00 21,4 C 85 % 1010,9 hPa 0,0 l/m SW 0,42 h 306 W/m 14,0 km/h (3 Bft)
19.07.2015 10:00 23,6 C 74 % 1010,9 hPa 0,0 l/m W-SW 0,67 h 486 W/m 20,2 km/h (4 Bft)
19.07.2015 11:00 24,7 C 67 % 1010,9 hPa 0,0 l/m W-SW 0,58 h 473 W/m 24,8 km/h (4 Bft)
19.07.2015 12:00 23,3 C 73 % 1011,1 hPa 0,0 l/m W-SW 0,00 h 113 W/m 17,2 km/h (3 Bft)
19.07.2015 13:00 23,4 C 73 % 1010,8 hPa 0,0 l/m W-SW 0,00 h 173 W/m 12,9 km/h (3 Bft)
19.07.2015 14:00 24,4 C 68 % 1010,4 hPa 0,0 l/m W 0,00 h 279 W/m 15,4 km/h (3 Bft)
19.07.2015 15:00 25,3 C 63 % 1009,8 hPa 0,0 l/m W 0,17 h 332 W/m 16,6 km/h (3 Bft)
19.07.2015 16:00 27,3 C 55 % 1009,2 hPa 0,0 l/m W 0,83 h 594 W/m 21,9 km/h (4 Bft)
19.07.2015 17:00 28,3 C 50 % 1008,9 hPa 0,0 l/m W 1,00 h 533 W/m 22,0 km/h (4 Bft)
19.07.2015 18:00 28,4 C 46 % 1008,7 hPa 0,0 l/m W 0,75 h 318 W/m 26,2 km/h (4 Bft)
19.07.2015 19:00 26,9 C 48 % 1008,9 hPa 0,0 l/m W-NW 0,50 h 139 W/m 17,2 km/h (3 Bft)
19.07.2015 20:00 25,2 C 51 % 1009,5 hPa 0,0 l/m W-NW 0,00 h 20 W/m 11,0 km/h (2 Bft)
19.07.2015 21:00 22,5 C 72 % 1010,3 hPa 0,0 l/m SW 0,08 h 6 W/m 18,6 km/h (3 Bft)
19.07.2015 22:00 20,3 C 82 % 1011,1 hPa 0,0 l/m SW 0,00 h 0 W/m 16,8 km/h (3 Bft)
19.07.2015 23:00 20,2 C 87 % 1011,8 hPa 0,2 l/m W-SW 0,00 h 0 W/m 14,6 km/h (3 Bft)
Min-Datum _ 15.07.15 16.07.15 19.07.15 - - - - 13.07.15
_ Min-Zeit 06:05 17:05 18:15 - - - - 00:00
Minimum _ 13,8 C 31 % 1008,6 hPa - - - - 0,0 km/h (0 Bft)
Max-Datum _ 17.07.15 19.07.15 15.07.15 17.07.15 - 13.07.15 14.07.15 17.07.15
_ Max-Zeit 15:15 07:05 07:35 16:20 - 09:00 14:30 16:15
Maximum _ 34,1 C 99 % 1017,9 hPa 8,8 l/m - 0,08 h 1088 W/m 48,3 km/h
O (6 Bft)
Durchschnitt _ 21,5 C 72 % 1014,5 hPa #19,0 l/m W-SW #47:40 h 303 W/m 7,0 km/h (2 Bft)